Campanya meteocatpedra

Dades EMA Cabrils

?
?
Resum diari 22:30 TU
Dades diàries de l'estació meteorològica
Temperatura mitjana 22.3 °C
Temperatura màxima 26.2 °C 9:58 TU
Temperatura mínima 16.8 °C 4:35 TU
Humitat relativa mitjana 54%
Precipitació acumulada 0.0 mm
Ratxa màxima del vent (10 m) 18.0 km/h - 154º 12:41 TU
Pressió atmosfèrica mitjana 1018.6 hPa
Irradiació solar global 28.6 MJ/m2

El tram horari està expressat en Temps Universal (TU). Cal sumar una hora en horari d'hivern i dues en horari d'estiu per passar a l'hora oficial.

Cabrils

Metadades estació meteorol´gica
Municipi Cabrils
Comarca Maresme
Altitud 81 m
Data alta 27.11.1995
Estat actual Operativa
Dades de període
Període
TU
TM
°C
TX
°C
TN
°C
HRM
%
PPT
mm
VVM (10 m)
km/h
DVM (10 m)
graus
VVX (10 m)
km/h
PM
hPa
RS
W/m2
00:00 - 00:30 18.3 19.3 17.7 68 0.0 4.7 285 11.2 1019.5 0
00:30 - 01:00 20.3 21.2 19.3 57 0.0 7.9 304 13.7 1019.2 0
01:00 - 01:30 21.1 21.4 20.1 52 0.0 4.7 283 11.5 1019.1 0
01:30 - 02:00 19.5 20.0 19.4 58 0.0 5.0 290 7.9 1018.9 0
02:00 - 02:30 19.6 19.7 19.4 57 0.0 7.2 299 10.1 1018.8 0
02:30 - 03:00 19.2 19.4 18.8 59 0.0 3.6 328 8.6 1018.9 0
03:00 - 03:30 18.1 18.7 17.7 67 0.0 1.8 114 5.8 1019.0 0
03:30 - 04:00 17.4 17.9 17.1 74 0.0 1.8 104 7.2 1019.3 0
04:00 - 04:30 17.0 17.5 16.9 77 0.0 4.0 321 6.5 1019.3 0
04:30 - 05:00 16.9 17.1 16.8 76 0.0 5.8 317 8.3 1019.4 14
05:00 - 05:30 17.4 17.8 17.1 73 0.0 5.8 315 8.6 1019.5 33
05:30 - 06:00 19.2 21.4 17.8 69 0.0 4.0 336 7.9 1019.5 158
06:00 - 06:30 22.2 23.6 21.5 58 0.0 2.9 358 5.0 1019.4 264
06:30 - 07:00 25.0 25.8 23.6 49 0.0 2.9 126 7.6 1019.5 351
07:00 - 07:30 25.3 25.5 25.0 48 0.0 5.4 138 10.4 1019.5 453
07:30 - 08:00 24.7 25.2 24.3 49 0.0 5.0 141 10.8 1019.8 540
08:00 - 08:30 25.1 25.3 24.8 48 0.0 5.8 153 10.4 1019.8 636
08:30 - 09:00 25.1 25.5 24.7 47 0.0 7.6 159 15.5 1019.7 717
09:00 - 09:30 25.4 26.0 24.6 46 0.0 6.8 162 15.1 1019.7 786
09:30 - 10:00 25.9 26.2 25.5 43 0.0 7.2 151 14.8 1019.5 845
10:00 - 10:30 26.0 26.2 25.6 43 0.0 8.6 151 14.8 1019.5 886
10:30 - 11:00 25.4 25.9 25.1 44 0.0 9.4 140 15.5 1019.5 919
11:00 - 11:30 25.3 25.7 25.0 45 0.0 8.3 156 14.0 1019.3 941
11:30 - 12:00 25.4 25.7 25.1 43 0.0 7.6 147 16.9 1019.1 945
12:00 - 12:30 25.8 26.1 25.4 41 0.0 8.3 155 17.3 1019.1 932
12:30 - 13:00 25.6 26.1 25.0 43 0.0 9.4 147 18.0 1019.1 905
13:00 - 13:30 24.8 25.1 24.5 51 0.0 9.0 159 14.8 1019.1 874
13:30 - 14:00 24.7 25.0 24.5 50 0.0 8.3 164 15.5 1019.0 825
14:00 - 14:30 25.1 25.8 24.8 47 0.0 7.9 166 16.2 1018.6 771
14:30 - 15:00 25.6 26.0 24.8 43 0.0 8.6 160 16.2 1018.2 702
15:00 - 15:30 24.9 25.3 24.6 49 0.0 7.2 156 15.8 1018.0 615
15:30 - 16:00 24.5 25.0 24.0 52 0.0 7.9 156 15.5 1017.8 539
16:00 - 16:30 24.2 24.4 24.0 52 0.0 7.2 161 14.8 1017.7 448
16:30 - 17:00 23.5 24.0 23.0 57 0.0 7.2 161 14.4 1017.6 343
17:00 - 17:30 22.7 23.1 22.5 62 0.0 5.8 157 10.4 1017.6 252
17:30 - 18:00 23.0 23.5 22.7 58 0.0 4.3 150 11.5 1017.5 159
18:00 - 18:30 23.3 23.5 22.9 47 0.0 5.0 171 11.5 1017.4 72
18:30 - 19:00 22.6 22.8 22.2 49 0.0 2.5 193 6.8 1017.4 16
19:00 - 19:30 21.8 22.2 21.3 53 0.0 2.9 257 6.5 1017.3 0
19:30 - 20:00 20.8 21.2 20.4 57 0.0 3.6 306 6.8 1017.4 0
20:00 - 20:30 20.3 20.4 20.1 58 0.0 5.0 321 7.6 1017.5 0
20:30 - 21:00 20.2 20.3 20.0 56 0.0 7.6 317 11.9 1017.6 0
21:00 - 21:30 20.3 20.4 20.1 54 0.0 6.8 314 10.4 1017.5 0
21:30 - 22:00 19.8 20.3 19.6 55 0.0 5.8 310 8.6 1017.2 0
22:00 - 22:30 19.7 19.9 19.5 56 0.0 6.1 301 10.4 1017.1 0
22:30 - 23:00 20.1 22.2 19.3 52 0.0 3.2 248 9.7 1017.0 0

Les dades en taronja només han passat un control de qualitat automàtic. Resta pendent la seva validació definitiva.